Time;durP1;ratioP1;P1;durP2;ratioP2;P2;SDS_P1;SDS_P2;PMS_P1;PMS_P2;Temp;Humidity;BMP_temperature;BMP_pressure;BME280_temperature;BME280_humidity;BME280_pressure;Samples;Min_cycle;Max_cycle;Signal;HPM_P1;HPM_P2
2021/04/15 00:01:48;;;;;;;23.47;19.37;;;;;;;1.86;81.07;96838.71;1747110;79;21091;-74
2021/04/15 00:04:14;;;;;;;30.95;21.25;;;;;;;1.92;81.13;96836.95;1761690;79;21237;-74
2021/04/15 00:06:41;;;;;;;25.20;19.87;;;;;;;1.91;81.08;96838.70;1768940;79;21141;-74
2021/04/15 00:09:15;;;;;;;24.65;18.62;;;;;;;1.89;80.98;96835.44;1769443;79;21205;-74
2021/04/15 00:11:41;;;;;;;22.80;17.92;;;;;;;1.87;80.95;96831.37;1780803;79;21122;-76
2021/04/15 00:14:08;;;;;;;23.40;18.37;;;;;;;1.86;80.94;96831.84;1779874;79;21063;-76
2021/04/15 00:16:34;;;;;;;23.38;18.20;;;;;;;1.86;80.83;96833.12;1780457;79;21089;-76
2021/04/15 00:19:00;;;;;;;22.05;18.35;;;;;;;1.86;80.87;96825.90;1786308;79;21192;-76
2021/04/15 00:21:26;;;;;;;22.87;19.17;;;;;;;1.84;80.93;96821.36;1772802;79;21063;-75
2021/04/15 00:23:52;;;;;;;26.77;20.05;;;;;;;1.85;81.08;96825.55;1791187;79;21316;-74
2021/04/15 00:26:21;;;;;;;23.87;18.17;;;;;;;1.88;81.05;96816.34;1779174;79;21200;-74
2021/04/15 00:28:49;;;;;;;23.92;17.32;;;;;;;1.91;80.92;96821.23;1779003;79;21079;-75
2021/04/15 00:31:16;;;;;;;23.22;16.93;;;;;;;1.96;80.92;96819.96;1776441;79;21248;-74
2021/04/15 00:33:42;;;;;;;22.32;19.20;;;;;;;1.99;80.73;96824.03;1786045;79;21232;-75
2021/04/15 00:36:08;;;;;;;21.00;16.67;;;;;;;1.97;80.67;96820.78;1781240;79;21280;-74
2021/04/15 00:38:34;;;;;;;21.82;18.25;;;;;;;1.88;80.40;96817.63;1778699;79;21252;-74
2021/04/15 00:41:00;;;;;;;27.27;19.67;;;;;;;1.82;80.60;96818.11;1784178;79;21248;-75
2021/04/15 00:43:30;;;;;;;22.67;18.20;;;;;;;1.79;80.70;96816.59;1781866;79;21079;-74
2021/04/15 00:45:57;;;;;;;16.37;14.60;;;;;;;1.72;80.53;96823.91;1716520;82;21220;-76
2021/04/15 00:48:41;;;;;;;18.98;14.20;;;;;;;1.67;80.45;96824.73;1693739;82;21094;-76
2021/04/15 00:51:28;;;;;;;13.20;11.20;;;;;;;1.56;80.37;96822.16;1717970;82;21121;-76
2021/04/15 00:54:09;;;;;;;10.93;9.80;;;;;;;1.45;80.44;96822.13;1721915;82;21110;-76
2021/04/15 00:56:35;;;;;;;11.80;9.07;;;;;;;1.15;80.85;96833.73;1702918;82;21143;-76
2021/04/15 00:59:02;;;;;;;13.35;9.75;;;;;;;1.15;80.85;96833.73;1707588;82;21628;-76
2021/04/15 01:01:28;;;;;;;10.45;9.10;;;;;;;1.11;81.44;96828.47;1729020;81;21099;-76
2021/04/15 01:03:54;;;;;;;12.78;11.12;;;;;;;1.12;81.29;96827.54;1719901;82;21078;-76
2021/04/15 01:06:20;;;;;;;10.85;9.75;;;;;;;1.12;81.41;96826.26;1711310;82;21098;-76
2021/04/15 01:08:47;;;;;;;11.35;10.18;;;;;;;1.13;81.37;96824.52;1724867;82;21472;-76
2021/04/15 01:11:54;;;;;;;12.47;11.03;;;;;;;1.05;81.41;96818.69;1729059;82;21297;-76
2021/04/15 01:14:35;;;;;;;15.85;12.18;;;;;;;1.09;81.74;96826.95;1719215;82;21112;-74
2021/04/15 01:17:13;;;;;;;13.48;11.35;;;;;;;1.07;81.75;96825.79;1721020;82;21151;-75
2021/04/15 01:20:28;;;;;;;12.75;11.45;;;;;;;1.16;81.92;96830.25;1711038;82;21093;-74
2021/04/15 01:23:23;;;;;;;15.20;13.32;;;;;;;1.18;81.75;96823.73;1721806;82;21601;-75
2021/04/15 01:26:01;;;;;;;16.05;14.33;;;;;;;1.16;81.72;96826.41;1784351;79;21086;-75
2021/04/15 01:28:52;;;;;;;15.18;13.00;;;;;;;1.15;81.82;96825.25;1781586;79;21074;-75
2021/04/15 01:31:30;;;;;;;17.20;15.25;;;;;;;1.09;82.02;96824.39;1770362;79;21213;-75
2021/04/15 01:34:02;;;;;;;12.60;11.25;;;;;;;1.09;82.21;96823.12;1785739;79;21197;-75
2021/04/15 01:36:36;;;;;;;13.88;12.28;;;;;;;1.08;82.16;96826.60;1784305;79;21277;-74
2021/04/15 01:39:08;;;;;;;13.55;12.15;;;;;;;1.01;82.00;96824.97;1777577;79;21240;-74
2021/04/15 01:42:00;;;;;;;11.83;9.53;;;;;;;0.96;82.06;96821.91;1781355;79;21086;-77
2021/04/15 01:44:32;;;;;;;11.97;9.85;;;;;;;0.90;82.08;96825.73;1721655;79;21110;-77
2021/04/15 01:47:02;;;;;;;7.35;6.62;;;;;;;0.92;82.31;96825.63;1785052;79;21082;-77
2021/04/15 01:49:31;;;;;;;11.30;10.15;;;;;;;0.93;82.18;96818.77;1779854;79;21077;-77
2021/04/15 01:51:57;;;;;;;12.50;11.08;;;;;;;0.89;82.28;96817.71;1718033;82;21224;-77
2021/04/15 01:54:34;;;;;;;14.18;12.78;;;;;;;0.87;82.18;96817.48;1674846;82;21427;-77
2021/04/15 01:57:20;;;;;;;12.45;11.15;;;;;;;0.90;82.28;96818.06;1722791;82;21478;-77
2021/04/15 02:00:07;;;;;;;13.13;11.63;;;;;;;0.93;82.30;96818.30;1708960;82;21094;-77
2021/04/15 02:02:49;;;;;;;13.05;11.75;;;;;;;0.96;82.35;96818.06;1720680;82;21293;-78
2021/04/15 02:05:26;;;;;;;;;;;;;;;0.99;82.49;96819.62;1785326;79;21121;-77
2021/04/15 02:08:06;;;;;;;14.83;12.18;;;;;;;0.99;82.39;96814.50;1775882;79;20117;-77
2021/04/15 02:10:33;;;;;;;12.95;11.65;;;;;;;0.99;82.40;96808.92;1772932;79;21067;-78
2021/04/15 02:12:59;;;;;;;13.90;12.50;;;;;;;1.03;82.34;96815.90;1777349;79;21328;-78
2021/04/15 02:15:29;;;;;;;13.88;12.47;;;;;;;1.06;82.23;96811.36;1776129;79;21130;-78
2021/04/15 02:18:06;;;;;;;14.07;12.70;;;;;;;1.12;82.28;96812.19;1782327;79;21130;-75
2021/04/15 02:20:33;;;;;;;13.18;11.78;;;;;;;1.15;82.21;96813.27;1714444;82;21122;-75
2021/04/15 02:23:16;;;;;;;13.40;11.97;;;;;;;1.19;82.25;96808.73;1787914;79;21156;-75
2021/04/15 02:25:53;;;;;;;13.10;11.80;;;;;;;1.19;82.19;96810.82;1780993;79;21098;-75
2021/04/15 02:29:10;;;;;;;11.70;10.58;;;;;;;1.20;82.05;96807.80;1788015;79;21111;-75
2021/04/15 02:31:47;;;;;;;13.60;10.78;;;;;;;1.22;82.09;96810.23;1779669;79;21302;-75
2021/04/15 02:34:22;;;;;;;12.35;11.12;;;;;;;1.20;81.88;96804.77;1789727;79;21205;-75
2021/04/15 02:36:57;;;;;;;12.78;11.03;;;;;;;1.10;81.75;96806.83;1772871;79;21200;-75
2021/04/15 02:39:34;;;;;;;14.83;13.43;;;;;;;1.04;82.01;96800.43;1757528;79;21093;-77
2021/04/15 02:42:04;;;;;;;17.70;14.43;;;;;;;1.04;82.22;96802.17;1770280;79;21125;-77
2021/04/15 02:44:47;;;;;;;15.05;13.00;;;;;;;0.96;82.09;96804.46;1776143;79;21245;-76
2021/04/15 02:47:18;;;;;;;11.95;10.63;;;;;;;0.94;82.28;96799.92;1785960;79;21098;-76
2021/04/15 02:49:44;;;;;;;14.70;13.20;;;;;;;0.91;82.18;96799.69;1773999;79;21059;-77
2021/04/15 02:52:23;;;;;;;13.48;12.20;;;;;;;0.87;82.20;96794.45;1783212;79;21066;-77
2021/04/15 02:54:58;;;;;;;14.93;13.43;;;;;;;0.90;82.53;96793.76;1776739;79;21083;-77
2021/04/15 02:57:27;;;;;;;16.75;15.03;;;;;;;0.95;82.56;96793.88;1783142;79;21451;-77
2021/04/15 02:59:58;;;;;;;16.40;14.30;;;;;;;0.93;82.61;96793.99;1754042;79;21287;-76
2021/04/15 03:02:32;;;;;;;15.50;13.90;;;;;;;0.96;82.61;96795.04;1783914;79;21152;-77
2021/04/15 03:05:15;;;;;;;15.38;13.88;;;;;;;0.99;82.56;96796.12;1784837;79;21471;-77
2021/04/15 03:07:41;;;;;;;14.95;13.45;;;;;;;1.00;82.43;96790.54;1722274;82;21143;-77
2021/04/15 03:10:13;;;;;;;16.00;14.30;;;;;;;1.01;82.45;96794.73;1723429;82;21102;-77
2021/04/15 03:12:52;;;;;;;15.43;13.83;;;;;;;1.03;82.59;96794.96;1725222;82;21402;-77
2021/04/15 03:15:25;;;;;;;16.10;14.40;;;;;;;1.01;82.59;96790.89;1722180;82;21313;-78
2021/04/15 03:17:56;;;;;;;15.95;14.23;;;;;;;0.96;82.59;96793.77;1718794;81;21673;-77
2021/04/15 03:20:29;;;;;;;14.18;12.85;;;;;;;0.97;82.70;96788.99;1711689;82;21078;-77
2021/04/15 03:23:10;;;;;;;12.95;11.75;;;;;;;1.04;82.63;96794.50;1724019;82;21134;-77
2021/04/15 03:25:36;;;;;;;13.93;12.53;;;;;;;1.05;82.54;96790.54;1726120;82;21233;-77
2021/04/15 03:28:17;;;;;;;11.55;10.45;;;;;;;1.05;82.53;96793.10;1724845;82;21221;-77
2021/04/15 03:30:51;;;;;;;13.72;12.15;;;;;;;1.00;82.62;96789.26;1685876;82;21139;-77
2021/04/15 03:33:31;;;;;;;14.33;12.93;;;;;;;0.94;82.63;96786.66;1728723;82;21149;-76
2021/04/15 03:36:21;;;;;;;13.90;12.20;;;;;;;0.91;82.66;96793.30;1712645;82;21344;-77
2021/04/15 03:39:11;;;;;;;12.88;11.78;;;;;;;0.96;82.67;96792.48;1785333;78;28362;-75
2021/04/15 03:41:43;;;;;;;12.53;11.33;;;;;;;1.02;82.62;96793.80;1743469;79;21135;-77
2021/04/15 03:44:14;;;;;;;;;;;;;;;1.09;82.59;96788.10;1769981;79;21109;-77
2021/04/15 03:46:55;;;;;;;14.43;12.30;;;;;;;1.05;82.37;96791.82;1767385;79;20143;-77
2021/04/15 03:49:26;;;;;;;15.13;13.62;;;;;;;1.02;82.42;96792.52;1767240;79;21094;-77
2021/04/15 03:52:00;;;;;;;13.73;12.13;;;;;;;1.00;82.50;96789.26;1774108;79;21268;-77
2021/04/15 03:54:38;;;;;;;13.93;12.43;;;;;;;0.99;82.49;96798.68;1779125;79;21077;-77
2021/04/15 03:57:08;;;;;;;15.15;13.65;;;;;;;1.00;82.56;96793.91;1774561;79;21237;-77
2021/04/15 03:59:40;;;;;;;14.70;12.58;;;;;;;1.03;82.56;96789.84;1741331;79;21101;-77
2021/04/15 04:02:11;;;;;;;12.45;11.15;;;;;;;1.04;82.59;96788.09;1769795;79;21252;-77
2021/04/15 04:04:45;;;;;;;13.90;12.45;;;;;;;1.03;82.67;96793.68;1779030;79;21114;-76
2021/04/15 04:07:16;;;;;;;13.20;11.90;;;;;;;0.99;82.63;96790.19;1774647;79;21343;-77
2021/04/15 04:09:46;;;;;;;13.90;12.53;;;;;;;0.99;82.60;96795.30;1759161;79;21311;-77
2021/04/15 04:12:23;;;;;;;12.00;10.65;;;;;;;0.99;82.56;96791.00;1773077;79;21145;-77
2021/04/15 04:14:54;;;;;;;12.58;11.28;;;;;;;1.02;82.53;96792.52;1775365;79;21122;-77
2021/04/15 04:17:26;;;;;;;12.23;11.08;;;;;;;1.04;82.62;96791.47;1770820;79;21278;-77
2021/04/15 04:19:54;;;;;;;10.98;9.63;;;;;;;1.03;82.61;96794.14;1769659;79;21125;-77
2021/04/15 04:22:58;;;;;;;14.80;13.40;;;;;;;1.03;82.68;96786.00;1776600;79;21318;-77
2021/04/15 04:25:57;;;;;;;13.62;12.13;;;;;;;1.01;82.65;96792.17;1769939;79;21086;-77
2021/04/15 04:28:34;;;;;;;12.03;10.78;;;;;;;1.00;82.59;96791.81;1755966;79;21342;-76
2021/04/15 04:31:10;;;;;;;14.85;13.35;;;;;;;0.97;82.61;96797.95;1773287;79;21122;-76
2021/04/15 04:33:43;;;;;;;15.60;14.00;;;;;;;0.90;82.56;96790.38;1779275;79;21270;-76
2021/04/15 04:36:10;;;;;;;18.77;15.20;;;;;;;0.92;82.74;96795.39;1779114;79;21094;-76
2021/04/15 04:38:36;;;;;;;27.55;21.80;;;;;;;0.90;82.86;96793.76;1769435;79;21114;-76
2021/04/15 04:41:13;;;;;;;15.10;13.50;;;;;;;0.89;82.83;96792.59;1748711;80;21257;-75
2021/04/15 04:43:55;;;;;;;16.97;15.23;;;;;;;0.89;83.10;96792.13;1761396;80;21105;-74
2021/04/15 04:46:41;;;;;;;18.05;15.38;;;;;;;0.85;82.90;96792.47;1755493;80;21248;-74
2021/04/15 04:49:30;;;;;;;17.05;15.20;;;;;;;0.87;82.93;96797.82;1761799;80;21125;-74
2021/04/15 04:52:09;;;;;;;18.65;15.48;;;;;;;0.92;82.96;96798.76;1755067;80;21067;-75
2021/04/15 04:54:38;;;;;;;18.23;16.27;;;;;;;0.94;82.89;96802.48;1756849;80;21348;-75
2021/04/15 04:57:14;;;;;;;15.25;13.65;;;;;;;0.96;83.01;96799.34;1751532;80;21307;-75
2021/04/15 04:59:56;;;;;;;18.23;13.95;;;;;;;0.98;82.87;96802.63;1756366;80;21165;-75
2021/04/15 05:02:22;;;;;;;;;;;;;;;0.97;82.88;96805.63;1763501;80;21101;-75
2021/04/15 05:04:48;;;;;;;15.65;14.23;;;;;;;0.96;82.58;96806.55;1764207;80;20150;-75
2021/04/15 05:07:22;;;;;;;19.75;15.32;;;;;;;0.97;82.70;96805.63;1750496;80;21334;-75
2021/04/15 05:09:48;;;;;;;19.98;16.93;;;;;;;0.88;82.62;96795.62;1750474;80;21240;-75
2021/04/15 05:12:19;;;;;;;19.60;17.42;;;;;;;0.85;82.89;96799.68;1762000;80;21209;-75
2021/04/15 05:14:45;;;;;;;12.78;11.20;;;;;;;0.86;83.00;96800.03;1763936;80;21084;-75
2021/04/15 05:17:31;;;;;;;18.37;15.75;;;;;;;0.85;82.81;96793.75;1747983;80;21095;-75
2021/04/15 05:20:00;;;;;;;17.55;15.03;;;;;;;0.87;82.86;96799.56;1732979;80;21102;-75
2021/04/15 05:22:44;;;;;;;15.68;14.00;;;;;;;0.92;82.91;96800.04;1743595;80;21469;-75
2021/04/15 05:25:27;;;;;;;14.60;13.10;;;;;;;0.96;82.82;96795.51;1759919;80;21091;-75
2021/04/15 05:27:53;;;;;;;17.00;15.00;;;;;;;0.96;82.81;96796.32;1766350;80;21204;-75
2021/04/15 05:30:57;;;;;;;17.15;15.08;;;;;;;0.90;82.77;96799.34;1762264;80;21432;-75
2021/04/15 05:33:25;;;;;;;18.82;16.77;;;;;;;0.89;82.85;96796.43;1667156;83;21158;-75
2021/04/15 05:36:06;;;;;;;17.82;15.10;;;;;;;0.99;82.90;96799.95;1694907;83;21470;-75
2021/04/15 05:38:37;;;;;;;17.57;15.78;;;;;;;1.06;82.78;96800.31;1668857;83;21344;-75
2021/04/15 05:41:04;;;;;;;17.87;15.98;;;;;;;1.09;82.69;96803.45;1669374;85;21263;-78
2021/04/15 05:43:48;;;;;;;21.95;18.77;;;;;;;1.10;82.63;96798.69;1676512;83;21415;-77
2021/04/15 05:46:23;;;;;;;18.80;15.90;;;;;;;1.11;82.70;96803.34;1693963;83;21387;-77
2021/04/15 05:49:00;;;;;;;15.72;13.78;;;;;;;1.02;82.37;96800.20;1680775;83;21115;-77
2021/04/15 05:51:30;;;;;;;18.70;14.85;;;;;;;0.97;82.51;96808.19;1664663;85;21117;-78
2021/04/15 05:54:01;;;;;;;15.65;14.00;;;;;;;0.93;82.76;96801.67;1675907;85;21114;-78
2021/04/15 05:56:33;;;;;;;16.48;14.63;;;;;;;0.90;82.66;96795.50;1660635;85;21257;-75
2021/04/15 05:59:16;;;;;;;18.30;16.37;;;;;;;0.89;82.82;96797.70;1646980;85;21177;-75
2021/04/15 06:01:51;;;;;;;25.68;23.15;;;;;;;0.89;82.82;96797.70;1629659;86;21293;-75
2021/04/15 06:04:37;;;;;;;19.60;15.53;;;;;;;0.96;82.82;96800.16;1653981;85;22102;-75
2021/04/15 06:07:04;;;;;;;32.42;29.30;;;;;;;0.94;82.63;96799.45;1661255;85;21248;-77
2021/04/15 06:09:30;;;;;;;23.70;20.52;;;;;;;0.99;82.66;96797.41;1639987;86;21284;-75
2021/04/15 06:12:09;;;;;;;54.65;48.98;;;;;;;1.03;82.57;96801.83;1643439;86;21367;-78
2021/04/15 06:14:55;;;;;;;24.75;19.48;;;;;;;1.07;82.66;96795.08;1640235;86;21149;-78
2021/04/15 06:17:32;;;;;;;28.50;25.50;;;;;;;1.11;82.58;96796.94;1639185;86;21287;-76
2021/04/15 06:20:12;;;;;;;16.15;14.18;;;;;;;1.10;82.62;96794.84;1631954;86;21124;-75
2021/04/15 06:22:42;;;;;;;18.40;14.87;;;;;;;1.08;82.33;96795.89;1633559;86;21466;-77
2021/04/15 06:25:27;;;;;;;15.75;13.43;;;;;;;1.11;82.45;96793.92;1659240;85;21177;-75
2021/04/15 06:27:54;;;;;;;16.60;13.80;;;;;;;1.20;82.46;96793.72;1640541;86;21134;-75
2021/04/15 06:30:34;;;;;;;15.83;13.88;;;;;;;1.22;82.34;96784.17;1648558;86;21251;-84
2021/04/15 06:33:13;;;;;;;19.05;15.20;;;;;;;1.27;82.42;96788.48;1647862;86;21314;-77
2021/04/15 06:35:41;;;;;;;21.10;15.70;;;;;;;1.24;82.30;96785.34;1644879;85;21236;-77
2021/04/15 06:38:46;;;;;;;25.08;19.82;;;;;;;1.24;82.36;96785.34;1607687;86;21110;-77
2021/04/15 06:41:23;;;;;;;19.57;16.17;;;;;;;1.27;82.26;96788.94;1609403;88;21135;-78
2021/04/15 06:44:18;;;;;;;26.00;20.80;;;;;;;1.36;82.18;96789.55;1629821;86;21143;-77
2021/04/15 06:47:11;;;;;;;27.80;19.52;;;;;;;1.38;82.13;96784.66;1652531;86;21158;-75
2021/04/15 06:49:48;;;;;;;25.08;18.48;;;;;;;1.38;81.86;96783.38;1642137;86;21357;-75
2021/04/15 06:52:42;;;;;;;18.55;13.43;;;;;;;1.31;81.90;96783.97;1667479;84;21453;-78
2021/04/15 06:55:58;;;;;;;20.50;16.62;;;;;;;1.28;82.01;96784.98;1658548;85;21118;-75
2021/04/15 06:58:41;;;;;;;19.12;15.38;;;;;;;1.20;81.87;96777.89;1651146;85;21341;-78
2021/04/15 07:02:02;;;;;;;22.05;16.97;;;;;;;1.19;82.03;96776.73;1641777;85;21152;-78
2021/04/15 07:04:33;;;;;;;23.00;18.05;;;;;;;1.30;82.22;96781.88;1645139;85;21138;-77
2021/04/15 07:07:12;;;;;;;24.00;19.55;;;;;;;1.42;82.10;96783.96;1648580;86;21364;-77
2021/04/15 07:10:08;;;;;;;17.50;13.53;;;;;;;1.49;82.14;96780.84;1629685;86;21134;-78
2021/04/15 07:12:46;;;;;;;22.65;17.92;;;;;;;1.48;81.74;96786.08;1637997;86;21170;-75
2021/04/15 07:15:51;;;;;;;24.20;19.12;;;;;;;1.50;81.84;96782.94;1647454;86;21123;-77
2021/04/15 07:18:41;;;;;;;19.48;15.90;;;;;;;1.48;81.57;96789.92;1564217;90;21178;-75
2021/04/15 07:21:34;;;;;;;21.15;16.73;;;;;;;1.53;81.42;96789.09;1571102;90;21237;-78
2021/04/15 07:24:17;;;;;;;20.65;16.27;;;;;;;1.51;81.41;96788.41;1790344;78;23300;-76
2021/04/15 07:27:06;;;;;;;24.00;18.37;;;;;;;1.42;81.42;96792.45;1779593;80;21339;-74
2021/04/15 07:29:49;;;;;;;22.73;18.85;;;;;;;1.47;81.64;96788.29;1763993;80;21088;-74
2021/04/15 07:32:42;;;;;;;22.65;17.57;;;;;;;1.51;81.60;96789.68;1770367;80;21329;-74
2021/04/15 07:35:26;;;;;;;25.35;20.00;;;;;;;1.60;81.36;96788.16;1767356;80;21208;-74
2021/04/15 07:38:04;;;;;;;23.38;18.40;;;;;;;1.65;81.20;96787.36;1711035;80;21162;-75
2021/04/15 07:40:50;;;;;;;23.70;21.15;;;;;;;1.67;81.28;96790.16;1785572;80;21102;-76
2021/04/15 07:43:40;;;;;;;17.17;15.28;;;;;;;1.76;81.38;96784.77;1751293;80;21155;-76
2021/04/15 07:46:47;;;;;;;14.60;12.75;;;;;;;1.75;80.99;96793.39;1740882;80;21114;-77
2021/04/15 07:50:10;;;;;;;15.63;12.75;;;;;;;1.77;80.93;96792.81;1752026;80;21247;-74
2021/04/15 07:53:25;;;;;;;14.68;13.03;;;;;;;1.76;80.89;96792.46;1750537;80;21114;-75
2021/04/15 07:56:34;;;;;;;11.97;10.70;;;;;;;1.90;80.97;96797.81;1760077;80;21278;-77
2021/04/15 07:59:47;;;;;;;12.65;11.35;;;;;;;1.95;80.87;96791.86;1745065;80;21157;-77
2021/04/15 08:02:36;;;;;;;;;;;;;;;1.97;80.86;96800.27;1752051;80;21317;-75
2021/04/15 08:05:59;;;;;;;13.75;10.80;;;;;;;1.97;80.50;96797.71;1745664;80;20144;-77
2021/04/15 08:08:39;;;;;;;11.63;10.45;;;;;;;1.98;80.65;96800.16;1746957;80;21327;-77
2021/04/15 08:11:45;;;;;;;12.40;11.22;;;;;;;1.97;80.42;96799.80;1747278;80;21098;-75
2021/04/15 08:14:37;;;;;;;11.73;10.45;;;;;;;2.08;80.54;96800.23;1728213;80;21459;-77
2021/04/15 08:17:26;;;;;;;12.58;11.33;;;;;;;2.18;80.36;96802.91;1760049;80;21332;-78
2021/04/15 08:20:13;;;;;;;10.15;8.58;;;;;;;2.12;80.29;96802.94;1748662;80;21094;-77
2021/04/15 08:22:57;;;;;;;11.15;9.98;;;;;;;2.19;80.33;96797.66;1731902;80;21114;-75
2021/04/15 08:25:56;;;;;;;10.65;9.50;;;;;;;2.22;80.40;96794.86;1722503;82;21225;-76
2021/04/15 08:29:15;;;;;;;12.47;11.05;;;;;;;2.32;80.05;96794.50;1694368;83;21269;-77
2021/04/15 08:32:30;;;;;;;11.08;9.85;;;;;;;2.36;79.93;96795.88;1715222;82;21111;-77
2021/04/15 08:35:20;;;;;;;8.73;7.92;;;;;;;2.43;79.74;96793.63;1702986;82;21245;-75
2021/04/15 08:38:09;;;;;;;13.00;11.68;;;;;;;2.39;79.37;96792.25;1715965;82;21225;-75
2021/04/15 08:41:14;;;;;;;16.07;12.85;;;;;;;2.40;79.71;96790.03;1707160;82;21273;-75
2021/04/15 08:44:19;;;;;;;16.17;13.90;;;;;;;2.50;79.75;96787.56;1689536;82;21113;-76
2021/04/15 08:47:03;;;;;;;17.48;13.53;;;;;;;2.52;79.63;96794.20;1718699;82;21098;-74
2021/04/15 08:49:44;;;;;;;16.55;14.58;;;;;;;2.56;79.40;96794.77;1718524;82;21220;-77
2021/04/15 08:52:36;;;;;;;15.18;13.58;;;;;;;2.64;79.43;96790.66;1720706;82;21114;-74
2021/04/15 08:55:20;;;;;;;15.25;13.65;;;;;;;2.76;79.33;96791.87;1708599;82;21224;-77
2021/04/15 08:58:09;;;;;;;17.35;15.45;;;;;;;2.71;78.93;96784.56;1713590;82;21329;-74
2021/04/15 09:00:48;;;;;;;17.87;15.75;;;;;;;2.70;79.12;96790.16;1721227;82;21330;-77
2021/04/15 09:03:29;;;;;;;19.50;15.28;;;;;;;2.73;79.19;96786.53;1699798;82;21138;-74
2021/04/15 09:06:13;;;;;;;17.67;15.68;;;;;;;2.74;79.31;96788.62;1720939;82;21107;-77
2021/04/15 09:09:20;;;;;;;17.57;15.78;;;;;;;2.80;78.98;96794.10;1711386;82;21131;-74
2021/04/15 09:12:29;;;;;;;12.63;10.45;;;;;;;2.79;78.41;96799.36;1716428;82;21115;-75
2021/04/15 09:15:04;;;;;;;15.60;13.98;;;;;;;2.77;77.84;96793.54;1721158;82;21452;-76
2021/04/15 09:17:48;;;;;;;19.00;17.00;;;;;;;2.58;78.16;96791.13;1722133;82;21233;-76
2021/04/15 09:20:52;;;;;;;25.32;22.70;;;;;;;2.40;78.50;96785.72;1791223;78;24291;-74
2021/04/15 09:23:50;;;;;;;31.20;28.40;;;;;;;2.39;78.96;96789.69;1779133;80;21066;-77
2021/04/15 09:26:30;;;;;;;22.55;19.80;;;;;;;2.34;78.88;96786.21;1721134;80;21135;-77
2021/04/15 09:29:17;;;;;;;22.42;17.92;;;;;;;2.40;79.13;96793.41;1767593;80;21829;-75
2021/04/15 09:32:04;;;;;;;22.45;20.02;;;;;;;2.57;78.89;96792.54;1760422;80;21101;-76
2021/04/15 09:34:50;;;;;;;22.07;19.23;;;;;;;2.78;79.11;96779.30;1725839;81;21123;-75
2021/04/15 09:37:25;;;;;;;26.55;22.20;;;;;;;2.85;78.57;96780.89;1703745;83;21150;-75
2021/04/15 09:40:01;;;;;;;25.65;21.20;;;;;;;2.79;78.75;96784.77;1720494;83;21261;-77
2021/04/15 09:42:47;;;;;;;17.80;15.60;;;;;;;2.70;78.47;96793.20;1720050;83;21114;-77
2021/04/15 09:45:39;;;;;;;23.65;19.95;;;;;;;2.62;78.30;96794.30;1712807;83;21146;-77
2021/04/15 09:48:34;;;;;;;16.77;14.93;;;;;;;2.61;78.56;96796.52;1717064;83;21133;-77
2021/04/15 09:51:16;;;;;;;16.90;15.08;;;;;;;2.61;78.19;96791.38;1711712;83;21090;-78
2021/04/15 09:54:04;;;;;;;20.55;18.25;;;;;;;2.71;78.44;96789.22;1730720;83;21107;-78
2021/04/15 09:56:55;;;;;;;22.30;19.25;;;;;;;2.71;78.27;96791.79;1717079;83;21256;-77
2021/04/15 09:59:57;;;;;;;20.90;18.70;;;;;;;2.79;78.24;96789.09;1714087;83;21157;-77
2021/04/15 10:02:38;;;;;;;23.00;20.50;;;;;;;2.97;78.68;96786.32;1725433;83;21086;-77
2021/04/15 10:05:08;;;;;;;19.65;17.25;;;;;;;3.33;78.68;96785.52;1715400;83;21243;-78
2021/04/15 10:07:38;;;;;;;18.75;16.70;;;;;;;3.64;78.40;96785.07;1698735;83;21165;-75
2021/04/15 10:10:44;;;;;;;20.35;17.50;;;;;;;3.78;77.80;96786.83;1714906;83;21137;-75
2021/04/15 10:13:52;;;;;;;18.05;16.15;;;;;;;3.72;77.02;96779.61;1728968;83;21314;-73
2021/04/15 10:16:51;;;;;;;14.40;11.90;;;;;;;3.58;77.00;96779.98;1715686;83;21249;-73
2021/04/15 10:20:04;;;;;;;13.83;11.43;;;;;;;3.46;76.54;96787.42;1695486;83;21115;-76
2021/04/15 10:23:03;;;;;;;;;;;;;;;3.29;76.46;96785.78;1700815;83;21103;-77
2021/04/15 10:25:33;;;;;;;13.53;12.13;;;;;;;3.23;76.71;96781.60;1698019;83;20138;-74
2021/04/15 10:28:24;;;;;;;15.90;14.30;;;;;;;3.10;76.85;96779.72;1704778;83;21229;-74
2021/04/15 10:31:08;;;;;;;16.85;13.25;;;;;;;3.05;77.04;96782.64;1711226;82;21146;-74
2021/04/15 10:34:20;;;;;;;29.27;23.60;;;;;;;3.08;76.95;96775.97;1751262;80;21261;-75
2021/04/15 10:37:24;;;;;;;20.82;18.35;;;;;;;2.95;77.03;96772.80;1737563;81;21127;-76
2021/04/15 10:40:07;;;;;;;18.67;16.70;;;;;;;2.85;77.55;96777.04;1760617;80;21510;-74
2021/04/15 10:42:51;;;;;;;15.32;13.72;;;;;;;2.66;77.59;96779.81;1751243;80;21134;-77
2021/04/15 10:45:22;;;;;;;20.90;17.80;;;;;;;2.54;77.50;96787.19;1731162;80;21072;-74
2021/04/15 10:48:24;;;;;;;13.45;11.97;;;;;;;2.62;77.86;96782.75;1755898;80;21464;-74
2021/04/15 10:50:59;;;;;;;18.67;16.73;;;;;;;2.68;77.67;96775.36;1756145;80;21158;-77
2021/04/15 10:53:52;;;;;;;25.32;21.60;;;;;;;2.63;77.66;96772.36;1763043;80;21103;-76
2021/04/15 10:56:28;;;;;;;;;;;;;;;2.63;77.94;96772.83;1774711;80;21317;-77
2021/04/15 10:59:09;;;;;;;20.50;16.75;;;;;;;2.64;78.21;96767.57;1761198;80;20221;-76
2021/04/15 11:01:42;;;;;;;19.27;17.30;;;;;;;2.62;78.08;96773.77;1759969;80;21127;-76
2021/04/15 11:04:18;;;;;;;17.42;15.48;;;;;;;2.71;78.17;96768.70;1767574;80;21099;-76
2021/04/15 11:07:08;;;;;;;17.55;14.28;;;;;;;2.84;78.02;96767.71;1708482;83;21105;-77
2021/04/15 11:09:40;;;;;;;12.30;11.03;;;;;;;2.81;77.43;96767.50;1768016;80;21245;-77
2021/04/15 11:12:22;;;;;;;16.05;13.40;;;;;;;2.70;77.29;96776.52;1746398;81;21113;-76
2021/04/15 11:15:16;;;;;;;17.55;14.80;;;;;;;2.62;77.47;96773.77;1766521;80;21424;-77
2021/04/15 11:17:45;;;;;;;18.25;15.40;;;;;;;2.77;78.05;96773.82;1759614;80;21213;-76
2021/04/15 11:20:32;;;;;;;19.17;16.07;;;;;;;2.86;77.89;96768.40;1712722;83;21384;-77
2021/04/15 11:23:17;;;;;;;18.67;16.45;;;;;;;2.94;77.98;96773.27;1771912;80;21111;-77
2021/04/15 11:25:52;;;;;;;17.55;13.72;;;;;;;3.00;77.85;96775.33;1772783;80;21194;-77
2021/04/15 11:28:26;;;;;;;16.85;14.33;;;;;;;3.04;77.68;96772.50;1707547;83;21289;-77
2021/04/15 11:31:13;;;;;;;20.72;16.73;;;;;;;3.01;77.61;96775.67;1738176;81;21178;-76
2021/04/15 11:33:46;;;;;;;20.37;15.98;;;;;;;2.94;77.44;96768.61;1767304;80;21431;-75
2021/04/15 11:36:18;;;;;;;16.05;14.35;;;;;;;2.85;77.48;96774.47;1775977;80;21114;-74
2021/04/15 11:38:46;;;;;;;14.85;13.28;;;;;;;2.80;77.64;96766.34;1759061;80;21107;-77
2021/04/15 11:41:22;;;;;;;15.10;12.30;;;;;;;2.91;77.48;96767.55;1759909;80;21095;-75
2021/04/15 11:43:52;;;;;;;13.53;12.03;;;;;;;2.92;77.21;96764.85;1754662;80;21118;-75
2021/04/15 11:46:39;;;;;;;14.78;13.20;;;;;;;2.93;77.65;96766.98;1707450;82;21261;-75
2021/04/15 11:49:23;;;;;;;15.20;12.80;;;;;;;2.94;77.70;96766.85;1761677;80;21338;-77
2021/04/15 11:52:13;;;;;;;12.63;11.40;;;;;;;2.95;77.32;96768.95;1746822;80;21106;-77
2021/04/15 11:54:47;;;;;;;15.03;12.90;;;;;;;2.91;77.57;96768.83;1764486;80;21063;-77
2021/04/15 11:57:38;;;;;;;14.53;12.98;;;;;;;2.96;77.64;96768.82;1765814;80;21107;-77
2021/04/15 12:00:19;;;;;;;12.90;11.50;;;;;;;3.07;77.77;96769.20;1769107;80;21135;-77
2021/04/15 12:02:59;;;;;;;10.88;9.78;;;;;;;3.15;77.44;96768.59;1768153;80;21228;-77
2021/04/15 12:05:38;;;;;;;12.18;10.88;;;;;;;3.17;77.03;96759.82;1710616;82;21255;-77
2021/04/15 12:08:28;;;;;;;12.55;11.28;;;;;;;3.19;77.10;96759.22;1755852;80;21360;-77
2021/04/15 12:11:08;;;;;;;12.78;11.20;;;;;;;3.21;76.99;96764.23;1755591;80;21151;-75
2021/04/15 12:13:44;;;;;;;13.93;11.50;;;;;;;3.11;76.89;96769.80;1755173;80;21240;-75
2021/04/15 12:16:33;;;;;;;14.60;13.03;;;;;;;2.98;77.08;96766.94;1766407;80;21208;-75
2021/04/15 12:19:10;;;;;;;12.55;11.25;;;;;;;3.13;77.37;96758.45;1760828;80;21477;-74
2021/04/15 12:22:15;;;;;;;16.07;14.47;;;;;;;3.18;76.80;96756.78;1775975;80;21086;-77
2021/04/15 12:24:53;;;;;;;13.40;12.00;;;;;;;3.06;77.05;96765.48;1755784;80;21301;-75
2021/04/15 12:27:25;;;;;;;16.40;12.00;;;;;;;3.14;76.94;96761.36;1751222;80;21257;-74
2021/04/15 12:30:06;;;;;;;10.48;9.48;;;;;;;3.21;76.93;96757.81;1754213;80;21086;-75
2021/04/15 12:32:58;;;;;;;14.70;12.20;;;;;;;3.18;76.55;96754.22;1755347;80;21095;-76